sensor_id;sensor_type;location;lat;lon;timestamp;P1;durP1;ratioP1;P2;durP2;ratioP2
16600;SDS011;34891;48.164;11.572;2024-02-04T00:01:12;8.38;;;2.38;;
16600;SDS011;34891;48.164;11.572;2024-02-04T00:06:15;6.80;;;2.83;;
16600;SDS011;34891;48.164;11.572;2024-02-04T00:11:20;5.20;;;2.67;;
16600;SDS011;34891;48.164;11.572;2024-02-04T00:16:23;3.42;;;2.00;;
16600;SDS011;34891;48.164;11.572;2024-02-04T00:21:25;5.53;;;2.88;;
16600;SDS011;34891;48.164;11.572;2024-02-04T00:26:30;6.18;;;2.50;;
16600;SDS011;34891;48.164;11.572;2024-02-04T00:31:32;4.35;;;2.25;;
16600;SDS011;34891;48.164;11.572;2024-02-04T00:36:35;3.38;;;2.05;;
16600;SDS011;34891;48.164;11.572;2024-02-04T00:41:39;4.50;;;2.30;;
16600;SDS011;34891;48.164;11.572;2024-02-04T00:51:45;5.78;;;2.35;;
16600;SDS011;34891;48.164;11.572;2024-02-04T00:56:49;4.07;;;2.17;;
16600;SDS011;34891;48.164;11.572;2024-02-04T01:01:52;2.42;;;1.60;;
16600;SDS011;34891;48.164;11.572;2024-02-04T01:06:54;4.43;;;2.38;;
16600;SDS011;34891;48.164;11.572;2024-02-04T01:12:04;4.53;;;2.50;;
16600;SDS011;34891;48.164;11.572;2024-02-04T01:17:07;3.95;;;2.35;;
16600;SDS011;34891;48.164;11.572;2024-02-04T01:22:10;5.20;;;2.45;;
16600;SDS011;34891;48.164;11.572;2024-02-04T01:27:14;3.88;;;2.42;;
16600;SDS011;34891;48.164;11.572;2024-02-04T01:32:17;8.40;;;1.95;;
16600;SDS011;34891;48.164;11.572;2024-02-04T01:37:20;5.28;;;2.83;;
16600;SDS011;34891;48.164;11.572;2024-02-04T01:42:24;6.00;;;2.42;;
16600;SDS011;34891;48.164;11.572;2024-02-04T01:52:29;7.57;;;3.65;;
16600;SDS011;34891;48.164;11.572;2024-02-04T01:57:34;4.30;;;2.35;;
16600;SDS011;34891;48.164;11.572;2024-02-04T02:02:38;6.03;;;2.60;;
16600;SDS011;34891;48.164;11.572;2024-02-04T02:07:41;4.53;;;2.33;;
16600;SDS011;34891;48.164;11.572;2024-02-04T02:12:50;5.07;;;2.40;;
16600;SDS011;34891;48.164;11.572;2024-02-04T02:17:55;4.88;;;2.88;;
16600;SDS011;34891;48.164;11.572;2024-02-04T02:23:03;6.28;;;2.95;;
16600;SDS011;34891;48.164;11.572;2024-02-04T02:28:10;6.75;;;3.08;;
16600;SDS011;34891;48.164;11.572;2024-02-04T02:33:13;7.55;;;2.80;;
16600;SDS011;34891;48.164;11.572;2024-02-04T02:38:25;5.53;;;2.87;;
16600;SDS011;34891;48.164;11.572;2024-02-04T02:43:30;5.82;;;2.58;;
16600;SDS011;34891;48.164;11.572;2024-02-04T02:48:34;4.28;;;2.08;;
16600;SDS011;34891;48.164;11.572;2024-02-04T02:53:37;4.18;;;2.45;;
16600;SDS011;34891;48.164;11.572;2024-02-04T02:58:41;4.38;;;2.47;;
16600;SDS011;34891;48.164;11.572;2024-02-04T03:03:44;4.70;;;2.42;;
16600;SDS011;34891;48.164;11.572;2024-02-04T03:08:47;4.35;;;2.00;;
16600;SDS011;34891;48.164;11.572;2024-02-04T03:13:51;6.55;;;2.10;;
16600;SDS011;34891;48.164;11.572;2024-02-04T03:18:53;3.47;;;1.70;;
16600;SDS011;34891;48.164;11.572;2024-02-04T03:23:57;2.87;;;1.57;;
16600;SDS011;34891;48.164;11.572;2024-02-04T03:29:01;2.55;;;1.60;;
16600;SDS011;34891;48.164;11.572;2024-02-04T03:34:06;3.80;;;1.83;;
16600;SDS011;34891;48.164;11.572;2024-02-04T03:39:09;4.18;;;2.00;;
16600;SDS011;34891;48.164;11.572;2024-02-04T03:44:14;3.28;;;1.98;;
16600;SDS011;34891;48.164;11.572;2024-02-04T03:54:19;3.55;;;1.88;;
16600;SDS011;34891;48.164;11.572;2024-02-04T03:59:23;6.18;;;2.50;;
16600;SDS011;34891;48.164;11.572;2024-02-04T04:09:30;3.35;;;1.63;;
16600;SDS011;34891;48.164;11.572;2024-02-04T04:14:34;3.13;;;1.75;;
16600;SDS011;34891;48.164;11.572;2024-02-04T04:19:36;1.85;;;1.30;;
16600;SDS011;34891;48.164;11.572;2024-02-04T04:24:41;3.30;;;1.58;;
16600;SDS011;34891;48.164;11.572;2024-02-04T04:29:46;2.10;;;1.40;;
16600;SDS011;34891;48.164;11.572;2024-02-04T04:34:48;2.03;;;1.33;;
16600;SDS011;34891;48.164;11.572;2024-02-04T04:39:51;5.15;;;2.20;;
16600;SDS011;34891;48.164;11.572;2024-02-04T04:44:55;3.65;;;1.63;;
16600;SDS011;34891;48.164;11.572;2024-02-04T04:55:01;3.45;;;1.20;;
16600;SDS011;34891;48.164;11.572;2024-02-04T05:00:06;2.92;;;1.70;;
16600;SDS011;34891;48.164;11.572;2024-02-04T05:05:11;4.15;;;1.80;;
16600;SDS011;34891;48.164;11.572;2024-02-04T05:10:15;2.70;;;1.40;;
16600;SDS011;34891;48.164;11.572;2024-02-04T05:15:19;2.03;;;1.13;;
16600;SDS011;34891;48.164;11.572;2024-02-04T05:20:23;7.75;;;1.30;;
16600;SDS011;34891;48.164;11.572;2024-02-04T05:25:26;2.30;;;1.17;;
16600;SDS011;34891;48.164;11.572;2024-02-04T05:30:30;2.23;;;1.40;;
16600;SDS011;34891;48.164;11.572;2024-02-04T05:35:33;5.80;;;1.45;;
16600;SDS011;34891;48.164;11.572;2024-02-04T05:40:38;4.35;;;1.77;;
16600;SDS011;34891;48.164;11.572;2024-02-04T05:45:42;2.90;;;1.60;;
16600;SDS011;34891;48.164;11.572;2024-02-04T05:50:45;6.97;;;1.77;;
16600;SDS011;34891;48.164;11.572;2024-02-04T05:55:49;4.50;;;2.83;;
16600;SDS011;34891;48.164;11.572;2024-02-04T06:00:53;2.88;;;1.63;;
16600;SDS011;34891;48.164;11.572;2024-02-04T06:05:55;2.80;;;1.70;;
16600;SDS011;34891;48.164;11.572;2024-02-04T06:10:58;4.93;;;2.25;;
16600;SDS011;34891;48.164;11.572;2024-02-04T06:16:02;3.90;;;1.67;;
16600;SDS011;34891;48.164;11.572;2024-02-04T06:21:06;6.20;;;2.38;;
16600;SDS011;34891;48.164;11.572;2024-02-04T06:26:09;2.30;;;1.47;;
16600;SDS011;34891;48.164;11.572;2024-02-04T06:31:13;2.55;;;1.27;;
16600;SDS011;34891;48.164;11.572;2024-02-04T06:41:19;3.55;;;1.65;;
16600;SDS011;34891;48.164;11.572;2024-02-04T06:46:26;3.95;;;1.90;;
16600;SDS011;34891;48.164;11.572;2024-02-04T06:51:29;4.70;;;2.13;;
16600;SDS011;34891;48.164;11.572;2024-02-04T06:56:32;3.75;;;1.67;;
16600;SDS011;34891;48.164;11.572;2024-02-04T07:01:37;4.85;;;2.42;;
16600;SDS011;34891;48.164;11.572;2024-02-04T07:06:40;4.80;;;1.75;;
16600;SDS011;34891;48.164;11.572;2024-02-04T07:11:43;7.50;;;2.42;;
16600;SDS011;34891;48.164;11.572;2024-02-04T07:21:50;4.90;;;1.90;;
16600;SDS011;34891;48.164;11.572;2024-02-04T07:26:54;3.58;;;1.58;;
16600;SDS011;34891;48.164;11.572;2024-02-04T07:31:57;3.35;;;2.00;;
16600;SDS011;34891;48.164;11.572;2024-02-04T07:37:01;5.57;;;2.25;;
16600;SDS011;34891;48.164;11.572;2024-02-04T07:42:04;9.20;;;2.35;;
16600;SDS011;34891;48.164;11.572;2024-02-04T07:47:07;7.18;;;2.88;;
16600;SDS011;34891;48.164;11.572;2024-02-04T07:52:11;5.25;;;2.50;;
16600;SDS011;34891;48.164;11.572;2024-02-04T07:57:14;6.00;;;2.35;;
16600;SDS011;34891;48.164;11.572;2024-02-04T08:02:17;7.27;;;2.60;;
16600;SDS011;34891;48.164;11.572;2024-02-04T08:07:22;3.90;;;1.98;;
16600;SDS011;34891;48.164;11.572;2024-02-04T08:12:25;5.75;;;2.22;;
16600;SDS011;34891;48.164;11.572;2024-02-04T08:17:28;5.87;;;2.33;;
16600;SDS011;34891;48.164;11.572;2024-02-04T08:22:43;3.97;;;2.15;;
16600;SDS011;34891;48.164;11.572;2024-02-04T08:27:46;6.22;;;2.10;;
16600;SDS011;34891;48.164;11.572;2024-02-04T08:32:49;5.28;;;2.05;;
16600;SDS011;34891;48.164;11.572;2024-02-04T08:37:53;3.08;;;1.58;;
16600;SDS011;34891;48.164;11.572;2024-02-04T08:42:56;3.72;;;1.60;;
16600;SDS011;34891;48.164;11.572;2024-02-04T08:47:59;5.25;;;1.45;;
16600;SDS011;34891;48.164;11.572;2024-02-04T08:53:03;3.33;;;1.67;;
16600;SDS011;34891;48.164;11.572;2024-02-04T08:58:06;2.97;;;1.40;;
16600;SDS011;34891;48.164;11.572;2024-02-04T09:03:08;4.65;;;1.77;;
16600;SDS011;34891;48.164;11.572;2024-02-04T09:08:12;5.55;;;1.38;;
16600;SDS011;34891;48.164;11.572;2024-02-04T09:18:18;5.40;;;2.10;;
16600;SDS011;34891;48.164;11.572;2024-02-04T09:23:22;4.80;;;1.73;;
16600;SDS011;34891;48.164;11.572;2024-02-04T09:28:25;5.82;;;2.30;;
16600;SDS011;34891;48.164;11.572;2024-02-04T09:33:27;3.90;;;1.90;;
16600;SDS011;34891;48.164;11.572;2024-02-04T09:38:32;6.40;;;2.30;;
16600;SDS011;34891;48.164;11.572;2024-02-04T09:43:35;4.55;;;1.80;;
16600;SDS011;34891;48.164;11.572;2024-02-04T09:48:39;4.38;;;2.10;;
16600;SDS011;34891;48.164;11.572;2024-02-04T09:53:44;3.20;;;1.33;;
16600;SDS011;34891;48.164;11.572;2024-02-04T09:58:47;2.85;;;1.63;;
16600;SDS011;34891;48.164;11.572;2024-02-04T10:03:54;5.07;;;1.75;;
16600;SDS011;34891;48.164;11.572;2024-02-04T10:08:58;3.75;;;1.60;;
16600;SDS011;34891;48.164;11.572;2024-02-04T10:14:01;4.57;;;2.50;;
16600;SDS011;34891;48.164;11.572;2024-02-04T10:19:04;5.60;;;2.40;;
16600;SDS011;34891;48.164;11.572;2024-02-04T10:24:08;8.95;;;2.50;;
16600;SDS011;34891;48.164;11.572;2024-02-04T10:34:13;5.32;;;2.17;;
16600;SDS011;34891;48.164;11.572;2024-02-04T10:39:18;6.40;;;1.90;;
16600;SDS011;34891;48.164;11.572;2024-02-04T10:44:22;4.00;;;1.77;;
16600;SDS011;34891;48.164;11.572;2024-02-04T10:49:25;3.83;;;1.80;;
16600;SDS011;34891;48.164;11.572;2024-02-04T10:54:30;4.93;;;2.25;;
16600;SDS011;34891;48.164;11.572;2024-02-04T10:59:36;7.05;;;2.15;;
16600;SDS011;34891;48.164;11.572;2024-02-04T11:04:40;4.68;;;1.92;;
16600;SDS011;34891;48.164;11.572;2024-02-04T11:09:45;3.13;;;1.33;;
16600;SDS011;34891;48.164;11.572;2024-02-04T11:14:50;3.78;;;2.00;;
16600;SDS011;34891;48.164;11.572;2024-02-04T11:19:59;3.30;;;1.63;;
16600;SDS011;34891;48.164;11.572;2024-02-04T11:25:15;3.13;;;1.48;;
16600;SDS011;34891;48.164;11.572;2024-02-04T11:30:24;2.63;;;1.30;;
16600;SDS011;34891;48.164;11.572;2024-02-04T11:35:27;3.70;;;1.27;;
16600;SDS011;34891;48.164;11.572;2024-02-04T11:40:33;1.63;;;1.05;;
16600;SDS011;34891;48.164;11.572;2024-02-04T11:45:39;2.97;;;1.10;;
16600;SDS011;34891;48.164;11.572;2024-02-04T11:50:42;2.13;;;1.30;;
16600;SDS011;34891;48.164;11.572;2024-02-04T11:55:47;2.15;;;1.00;;
16600;SDS011;34891;48.164;11.572;2024-02-04T12:00:51;2.45;;;1.05;;
16600;SDS011;34891;48.164;11.572;2024-02-04T12:05:55;1.40;;;1.00;;
16600;SDS011;34891;48.164;11.572;2024-02-04T12:10:59;2.10;;;1.10;;
16600;SDS011;34891;48.164;11.572;2024-02-04T12:16:02;3.58;;;1.25;;
16600;SDS011;34891;48.164;11.572;2024-02-04T12:21:06;1.90;;;1.15;;
16600;SDS011;34891;48.164;11.572;2024-02-04T12:26:10;2.10;;;1.00;;
16600;SDS011;34891;48.164;11.572;2024-02-04T12:31:16;1.42;;;0.88;;
16600;SDS011;34891;48.164;11.572;2024-02-04T12:36:19;5.05;;;1.25;;
16600;SDS011;34891;48.164;11.572;2024-02-04T12:41:23;1.38;;;0.65;;
16600;SDS011;34891;48.164;11.572;2024-02-04T12:46:26;2.20;;;0.90;;
16600;SDS011;34891;48.164;11.572;2024-02-04T12:51:30;2.55;;;1.00;;
16600;SDS011;34891;48.164;11.572;2024-02-04T12:56:44;3.10;;;1.05;;
16600;SDS011;34891;48.164;11.572;2024-02-04T13:01:51;1.02;;;0.82;;
16600;SDS011;34891;48.164;11.572;2024-02-04T13:06:54;4.50;;;1.02;;
16600;SDS011;34891;48.164;11.572;2024-02-04T13:12:03;5.05;;;1.20;;
16600;SDS011;34891;48.164;11.572;2024-02-04T13:17:06;2.15;;;1.05;;
16600;SDS011;34891;48.164;11.572;2024-02-04T13:22:09;1.95;;;0.85;;
16600;SDS011;34891;48.164;11.572;2024-02-04T13:27:14;3.60;;;1.50;;
16600;SDS011;34891;48.164;11.572;2024-02-04T13:32:18;4.47;;;1.38;;
16600;SDS011;34891;48.164;11.572;2024-02-04T13:37:21;1.98;;;1.00;;
16600;SDS011;34891;48.164;11.572;2024-02-04T13:42:25;3.93;;;1.17;;
16600;SDS011;34891;48.164;11.572;2024-02-04T13:47:28;1.42;;;0.93;;
16600;SDS011;34891;48.164;11.572;2024-02-04T13:52:31;3.00;;;1.38;;
16600;SDS011;34891;48.164;11.572;2024-02-04T13:57:35;3.53;;;1.50;;
16600;SDS011;34891;48.164;11.572;2024-02-04T14:02:38;3.88;;;1.40;;
16600;SDS011;34891;48.164;11.572;2024-02-04T14:07:41;2.95;;;0.77;;
16600;SDS011;34891;48.164;11.572;2024-02-04T14:12:45;4.05;;;1.10;;
16600;SDS011;34891;48.164;11.572;2024-02-04T14:17:48;5.28;;;1.30;;
16600;SDS011;34891;48.164;11.572;2024-02-04T14:22:51;7.07;;;1.02;;
16600;SDS011;34891;48.164;11.572;2024-02-04T14:27:56;3.57;;;1.30;;
16600;SDS011;34891;48.164;11.572;2024-02-04T14:32:59;2.35;;;1.10;;
16600;SDS011;34891;48.164;11.572;2024-02-04T14:38:02;6.93;;;1.20;;
16600;SDS011;34891;48.164;11.572;2024-02-04T14:43:06;5.87;;;1.07;;
16600;SDS011;34891;48.164;11.572;2024-02-04T14:48:09;2.53;;;0.80;;
16600;SDS011;34891;48.164;11.572;2024-02-04T14:53:12;1.80;;;0.90;;
16600;SDS011;34891;48.164;11.572;2024-02-04T14:58:15;1.92;;;1.02;;
16600;SDS011;34891;48.164;11.572;2024-02-04T15:03:18;4.82;;;1.30;;
16600;SDS011;34891;48.164;11.572;2024-02-04T15:08:21;1.00;;;0.68;;
16600;SDS011;34891;48.164;11.572;2024-02-04T15:13:26;3.03;;;1.00;;
16600;SDS011;34891;48.164;11.572;2024-02-04T15:18:34;3.15;;;0.98;;
16600;SDS011;34891;48.164;11.572;2024-02-04T15:23:37;2.00;;;0.82;;
16600;SDS011;34891;48.164;11.572;2024-02-04T15:28:41;2.38;;;1.05;;
16600;SDS011;34891;48.164;11.572;2024-02-04T15:33:45;3.72;;;1.00;;
16600;SDS011;34891;48.164;11.572;2024-02-04T15:38:49;2.33;;;1.00;;
16600;SDS011;34891;48.164;11.572;2024-02-04T15:43:53;1.92;;;1.10;;
16600;SDS011;34891;48.164;11.572;2024-02-04T15:48:56;2.63;;;0.95;;
16600;SDS011;34891;48.164;11.572;2024-02-04T15:54:01;2.28;;;0.60;;
16600;SDS011;34891;48.164;11.572;2024-02-04T15:59:06;3.40;;;1.17;;
16600;SDS011;34891;48.164;11.572;2024-02-04T16:04:12;1.52;;;0.93;;
16600;SDS011;34891;48.164;11.572;2024-02-04T16:09:18;5.07;;;1.15;;
16600;SDS011;34891;48.164;11.572;2024-02-04T16:14:23;2.28;;;0.82;;
16600;SDS011;34891;48.164;11.572;2024-02-04T16:19:26;0.60;;;0.60;;
16600;SDS011;34891;48.164;11.572;2024-02-04T16:24:29;1.55;;;0.90;;
16600;SDS011;34891;48.164;11.572;2024-02-04T16:29:33;1.73;;;0.70;;
16600;SDS011;34891;48.164;11.572;2024-02-04T16:34:38;2.45;;;0.98;;
16600;SDS011;34891;48.164;11.572;2024-02-04T16:39:41;5.15;;;1.20;;
16600;SDS011;34891;48.164;11.572;2024-02-04T16:44:47;2.25;;;1.00;;
16600;SDS011;34891;48.164;11.572;2024-02-04T16:49:52;1.52;;;0.75;;
16600;SDS011;34891;48.164;11.572;2024-02-04T16:54:56;3.95;;;1.00;;
16600;SDS011;34891;48.164;11.572;2024-02-04T17:00:00;9.93;;;1.15;;
16600;SDS011;34891;48.164;11.572;2024-02-04T17:05:03;0.90;;;0.65;;
16600;SDS011;34891;48.164;11.572;2024-02-04T17:10:07;3.10;;;0.88;;
16600;SDS011;34891;48.164;11.572;2024-02-04T17:15:12;1.15;;;0.98;;
16600;SDS011;34891;48.164;11.572;2024-02-04T17:20:16;1.60;;;0.90;;
16600;SDS011;34891;48.164;11.572;2024-02-04T17:25:27;2.90;;;1.20;;
16600;SDS011;34891;48.164;11.572;2024-02-04T17:30:34;2.70;;;1.05;;
16600;SDS011;34891;48.164;11.572;2024-02-04T17:35:36;2.42;;;1.55;;
16600;SDS011;34891;48.164;11.572;2024-02-04T17:40:39;1.40;;;1.00;;
16600;SDS011;34891;48.164;11.572;2024-02-04T17:45:45;1.63;;;0.95;;
16600;SDS011;34891;48.164;11.572;2024-02-04T17:50:47;2.45;;;0.90;;
16600;SDS011;34891;48.164;11.572;2024-02-04T17:56:03;3.13;;;1.17;;
16600;SDS011;34891;48.164;11.572;2024-02-04T18:01:07;3.20;;;1.20;;
16600;SDS011;34891;48.164;11.572;2024-02-04T18:06:10;1.90;;;0.98;;
16600;SDS011;34891;48.164;11.572;2024-02-04T18:11:16;1.30;;;0.73;;
16600;SDS011;34891;48.164;11.572;2024-02-04T18:16:23;1.55;;;1.02;;
16600;SDS011;34891;48.164;11.572;2024-02-04T18:21:26;3.38;;;1.13;;
16600;SDS011;34891;48.164;11.572;2024-02-04T18:26:29;1.63;;;1.10;;
16600;SDS011;34891;48.164;11.572;2024-02-04T18:31:36;3.10;;;0.60;;
16600;SDS011;34891;48.164;11.572;2024-02-04T18:36:39;3.65;;;1.05;;
16600;SDS011;34891;48.164;11.572;2024-02-04T18:41:42;2.83;;;1.33;;
16600;SDS011;34891;48.164;11.572;2024-02-04T18:46:49;3.85;;;1.23;;
16600;SDS011;34891;48.164;11.572;2024-02-04T18:51:52;2.75;;;1.42;;
16600;SDS011;34891;48.164;11.572;2024-02-04T18:56:55;4.20;;;1.67;;
16600;SDS011;34891;48.164;11.572;2024-02-04T19:01:59;4.38;;;1.10;;
16600;SDS011;34891;48.164;11.572;2024-02-04T19:07:02;3.70;;;1.08;;
16600;SDS011;34891;48.164;11.572;2024-02-04T19:12:05;1.75;;;1.25;;
16600;SDS011;34891;48.164;11.572;2024-02-04T19:17:09;3.55;;;1.00;;
16600;SDS011;34891;48.164;11.572;2024-02-04T19:22:12;2.55;;;1.00;;
16600;SDS011;34891;48.164;11.572;2024-02-04T19:27:15;2.05;;;1.10;;
16600;SDS011;34891;48.164;11.572;2024-02-04T19:32:20;2.15;;;1.33;;
16600;SDS011;34891;48.164;11.572;2024-02-04T19:42:25;4.55;;;1.20;;
16600;SDS011;34891;48.164;11.572;2024-02-04T19:47:29;2.17;;;1.17;;
16600;SDS011;34891;48.164;11.572;2024-02-04T19:52:35;1.90;;;0.80;;
16600;SDS011;34891;48.164;11.572;2024-02-04T19:57:38;4.88;;;1.17;;
16600;SDS011;34891;48.164;11.572;2024-02-04T20:02:44;4.65;;;1.30;;
16600;SDS011;34891;48.164;11.572;2024-02-04T20:07:47;3.00;;;1.10;;
16600;SDS011;34891;48.164;11.572;2024-02-04T20:12:50;3.15;;;0.60;;
16600;SDS011;34891;48.164;11.572;2024-02-04T20:17:54;2.17;;;1.20;;
16600;SDS011;34891;48.164;11.572;2024-02-04T20:23:01;2.17;;;0.70;;
16600;SDS011;34891;48.164;11.572;2024-02-04T20:28:04;2.33;;;0.90;;
16600;SDS011;34891;48.164;11.572;2024-02-04T20:33:08;2.03;;;0.97;;
16600;SDS011;34891;48.164;11.572;2024-02-04T20:38:11;3.60;;;0.80;;
16600;SDS011;34891;48.164;11.572;2024-02-04T20:43:15;1.33;;;0.90;;
16600;SDS011;34891;48.164;11.572;2024-02-04T20:48:19;3.37;;;0.80;;
16600;SDS011;34891;48.164;11.572;2024-02-04T20:58:25;3.15;;;0.70;;
16600;SDS011;34891;48.164;11.572;2024-02-04T21:03:29;1.48;;;0.68;;
16600;SDS011;34891;48.164;11.572;2024-02-04T21:08:32;2.80;;;0.77;;
16600;SDS011;34891;48.164;11.572;2024-02-04T21:13:35;2.97;;;0.50;;
16600;SDS011;34891;48.164;11.572;2024-02-04T21:18:40;3.35;;;1.05;;
16600;SDS011;34891;48.164;11.572;2024-02-04T21:23:43;1.98;;;0.73;;
16600;SDS011;34891;48.164;11.572;2024-02-04T21:28:47;4.82;;;0.50;;
16600;SDS011;34891;48.164;11.572;2024-02-04T21:33:51;1.77;;;0.80;;
16600;SDS011;34891;48.164;11.572;2024-02-04T21:38:54;2.42;;;0.65;;
16600;SDS011;34891;48.164;11.572;2024-02-04T21:43:57;1.50;;;0.50;;
16600;SDS011;34891;48.164;11.572;2024-02-04T21:49:02;2.85;;;0.70;;
16600;SDS011;34891;48.164;11.572;2024-02-04T21:54:06;1.48;;;0.55;;
16600;SDS011;34891;48.164;11.572;2024-02-04T21:59:09;3.90;;;0.65;;
16600;SDS011;34891;48.164;11.572;2024-02-04T22:04:13;2.20;;;0.77;;
16600;SDS011;34891;48.164;11.572;2024-02-04T22:09:17;1.73;;;0.82;;
16600;SDS011;34891;48.164;11.572;2024-02-04T22:14:19;2.33;;;0.90;;
16600;SDS011;34891;48.164;11.572;2024-02-04T22:19:23;0.10;;;0.10;;
16600;SDS011;34891;48.164;11.572;2024-02-04T22:24:26;1.33;;;0.35;;
16600;SDS011;34891;48.164;11.572;2024-02-04T22:29:29;0.95;;;0.57;;
16600;SDS011;34891;48.164;11.572;2024-02-04T22:34:34;0.88;;;0.45;;
16600;SDS011;34891;48.164;11.572;2024-02-04T22:39:38;1.77;;;0.40;;
16600;SDS011;34891;48.164;11.572;2024-02-04T22:44:41;1.40;;;0.67;;
16600;SDS011;34891;48.164;11.572;2024-02-04T22:49:45;0.73;;;0.60;;
16600;SDS011;34891;48.164;11.572;2024-02-04T22:54:48;2.40;;;0.70;;
16600;SDS011;34891;48.164;11.572;2024-02-04T22:59:51;0.57;;;0.50;;
16600;SDS011;34891;48.164;11.572;2024-02-04T23:04:55;1.30;;;0.67;;
16600;SDS011;34891;48.164;11.572;2024-02-04T23:15:01;1.80;;;0.35;;
16600;SDS011;34891;48.164;11.572;2024-02-04T23:20:05;1.20;;;0.50;;
16600;SDS011;34891;48.164;11.572;2024-02-04T23:25:11;0.63;;;0.32;;
16600;SDS011;34891;48.164;11.572;2024-02-04T23:30:16;1.40;;;0.70;;
16600;SDS011;34891;48.164;11.572;2024-02-04T23:35:20;2.35;;;0.40;;
16600;SDS011;34891;48.164;11.572;2024-02-04T23:45:26;0.60;;;0.30;;
16600;SDS011;34891;48.164;11.572;2024-02-04T23:50:30;1.30;;;0.38;;
16600;SDS011;34891;48.164;11.572;2024-02-04T23:55:32;1.20;;;0.60;;
